sensor_id;sensor_type;location;lat;lon;timestamp;P1;durP1;ratioP1;P2;durP2;ratioP2
73959;SDS011;62316;48.920;2.342;2024-01-07T00:01:26;3.00;;;3.00;;
73959;SDS011;62316;48.920;2.342;2024-01-07T00:03:52;3.00;;;3.00;;
73959;SDS011;62316;48.920;2.342;2024-01-07T00:06:17;7.00;;;5.00;;
73959;SDS011;62316;48.920;2.342;2024-01-07T00:08:43;2.25;;;2.25;;
73959;SDS011;62316;48.920;2.342;2024-01-07T00:11:08;1.50;;;1.00;;
73959;SDS011;62316;48.920;2.342;2024-01-07T00:13:34;2.00;;;2.00;;
73959;SDS011;62316;48.920;2.342;2024-01-07T00:15:59;3.00;;;3.00;;
73959;SDS011;62316;48.920;2.342;2024-01-07T00:18:31;2.50;;;2.50;;
73959;SDS011;62316;48.920;2.342;2024-01-07T00:20:56;1.00;;;1.00;;
73959;SDS011;62316;48.920;2.342;2024-01-07T00:23:22;2.00;;;2.00;;
73959;SDS011;62316;48.920;2.342;2024-01-07T00:25:48;2.00;;;2.00;;
73959;SDS011;62316;48.920;2.342;2024-01-07T00:28:13;2.50;;;2.50;;
73959;SDS011;62316;48.920;2.342;2024-01-07T00:30:38;2.75;;;2.75;;
73959;SDS011;62316;48.920;2.342;2024-01-07T00:33:04;5.50;;;4.00;;
73959;SDS011;62316;48.920;2.342;2024-01-07T00:35:29;2.00;;;2.00;;
73959;SDS011;62316;48.920;2.342;2024-01-07T00:37:55;4.00;;;3.00;;
73959;SDS011;62316;48.920;2.342;2024-01-07T00:40:21;4.25;;;4.25;;
73959;SDS011;62316;48.920;2.342;2024-01-07T00:42:47;2.75;;;1.50;;
73959;SDS011;62316;48.920;2.342;2024-01-07T00:45:13;2.00;;;2.00;;
73959;SDS011;62316;48.920;2.342;2024-01-07T00:47:38;3.25;;;2.00;;
73959;SDS011;62316;48.920;2.342;2024-01-07T00:50:03;3.50;;;3.50;;
73959;SDS011;62316;48.920;2.342;2024-01-07T00:52:29;1.50;;;1.50;;
73959;SDS011;62316;48.920;2.342;2024-01-07T00:54:54;4.50;;;2.25;;
73959;SDS011;62316;48.920;2.342;2024-01-07T00:57:19;2.00;;;1.25;;
73959;SDS011;62316;48.920;2.342;2024-01-07T00:59:45;1.50;;;1.50;;
73959;SDS011;62316;48.920;2.342;2024-01-07T01:02:10;2.50;;;2.50;;
73959;SDS011;62316;48.920;2.342;2024-01-07T01:04:38;3.00;;;2.00;;
73959;SDS011;62316;48.920;2.342;2024-01-07T01:07:04;1.75;;;1.00;;
73959;SDS011;62316;48.920;2.342;2024-01-07T01:09:29;1.00;;;1.00;;
73959;SDS011;62316;48.920;2.342;2024-01-07T01:11:54;2.00;;;2.00;;
73959;SDS011;62316;48.920;2.342;2024-01-07T01:14:20;0.00;;;0.00;;
73959;SDS011;62316;48.920;2.342;2024-01-07T01:16:45;1.25;;;1.25;;
73959;SDS011;62316;48.920;2.342;2024-01-07T01:19:10;1.50;;;1.50;;
73959;SDS011;62316;48.920;2.342;2024-01-07T01:21:36;1.75;;;1.75;;
73959;SDS011;62316;48.920;2.342;2024-01-07T01:24:01;2.25;;;2.00;;
73959;SDS011;62316;48.920;2.342;2024-01-07T01:26:26;2.00;;;2.00;;
73959;SDS011;62316;48.920;2.342;2024-01-07T01:28:52;1.75;;;1.75;;
73959;SDS011;62316;48.920;2.342;2024-01-07T01:31:17;1.75;;;1.75;;
73959;SDS011;62316;48.920;2.342;2024-01-07T01:33:42;1.00;;;1.00;;
73959;SDS011;62316;48.920;2.342;2024-01-07T01:36:08;2.75;;;1.50;;
73959;SDS011;62316;48.920;2.342;2024-01-07T01:38:33;3.25;;;1.75;;
73959;SDS011;62316;48.920;2.342;2024-01-07T01:40:59;2.00;;;1.00;;
73959;SDS011;62316;48.920;2.342;2024-01-07T01:43:28;2.50;;;1.00;;
73959;SDS011;62316;48.920;2.342;2024-01-07T01:45:54;1.00;;;1.00;;
73959;SDS011;62316;48.920;2.342;2024-01-07T01:48:20;2.50;;;1.25;;
73959;SDS011;62316;48.920;2.342;2024-01-07T01:50:47;1.75;;;1.75;;
73959;SDS011;62316;48.920;2.342;2024-01-07T01:53:13;1.00;;;1.00;;
73959;SDS011;62316;48.920;2.342;2024-01-07T01:55:38;1.00;;;1.00;;
73959;SDS011;62316;48.920;2.342;2024-01-07T01:58:04;1.00;;;1.00;;
73959;SDS011;62316;48.920;2.342;2024-01-07T02:00:31;1.00;;;1.00;;
73959;SDS011;62316;48.920;2.342;2024-01-07T02:02:56;1.00;;;0.00;;
73959;SDS011;62316;48.920;2.342;2024-01-07T02:05:21;4.00;;;2.75;;
73959;SDS011;62316;48.920;2.342;2024-01-07T02:07:47;1.00;;;1.00;;
73959;SDS011;62316;48.920;2.342;2024-01-07T02:10:13;1.00;;;1.00;;
73959;SDS011;62316;48.920;2.342;2024-01-07T02:12:38;2.00;;;2.00;;
73959;SDS011;62316;48.920;2.342;2024-01-07T02:15:04;2.50;;;1.50;;
73959;SDS011;62316;48.920;2.342;2024-01-07T02:17:29;2.00;;;2.00;;
73959;SDS011;62316;48.920;2.342;2024-01-07T02:19:55;2.75;;;2.00;;
73959;SDS011;62316;48.920;2.342;2024-01-07T02:22:20;1.50;;;1.50;;
73959;SDS011;62316;48.920;2.342;2024-01-07T02:24:46;3.00;;;3.00;;
73959;SDS011;62316;48.920;2.342;2024-01-07T02:27:11;2.00;;;1.00;;
73959;SDS011;62316;48.920;2.342;2024-01-07T02:29:37;2.75;;;1.25;;
73959;SDS011;62316;48.920;2.342;2024-01-07T02:32:02;2.00;;;2.00;;
73959;SDS011;62316;48.920;2.342;2024-01-07T02:34:27;2.00;;;1.00;;
73959;SDS011;62316;48.920;2.342;2024-01-07T02:36:53;1.00;;;1.00;;
73959;SDS011;62316;48.920;2.342;2024-01-07T02:39:18;0.00;;;0.00;;
73959;SDS011;62316;48.920;2.342;2024-01-07T02:41:44;2.00;;;0.00;;
73959;SDS011;62316;48.920;2.342;2024-01-07T02:44:09;1.50;;;1.50;;
73959;SDS011;62316;48.920;2.342;2024-01-07T02:46:34;2.00;;;2.00;;
73959;SDS011;62316;48.920;2.342;2024-01-07T02:49:00;2.00;;;2.00;;
73959;SDS011;62316;48.920;2.342;2024-01-07T02:51:25;1.75;;;1.00;;
73959;SDS011;62316;48.920;2.342;2024-01-07T02:53:50;1.00;;;1.00;;
73959;SDS011;62316;48.920;2.342;2024-01-07T02:56:16;6.00;;;3.00;;
73959;SDS011;62316;48.920;2.342;2024-01-07T02:58:41;1.25;;;1.25;;
73959;SDS011;62316;48.920;2.342;2024-01-07T03:01:10;2.25;;;1.00;;
73959;SDS011;62316;48.920;2.342;2024-01-07T03:03:35;2.00;;;1.00;;
73959;SDS011;62316;48.920;2.342;2024-01-07T03:06:01;1.00;;;1.00;;
73959;SDS011;62316;48.920;2.342;2024-01-07T03:08:27;2.25;;;2.25;;
73959;SDS011;62316;48.920;2.342;2024-01-07T03:10:53;4.25;;;3.00;;
73959;SDS011;62316;48.920;2.342;2024-01-07T03:13:18;2.50;;;2.50;;
73959;SDS011;62316;48.920;2.342;2024-01-07T03:15:43;2.00;;;2.00;;
73959;SDS011;62316;48.920;2.342;2024-01-07T03:18:09;2.00;;;2.00;;
73959;SDS011;62316;48.920;2.342;2024-01-07T03:20:34;2.00;;;2.00;;
73959;SDS011;62316;48.920;2.342;2024-01-07T03:23:00;2.00;;;2.00;;
73959;SDS011;62316;48.920;2.342;2024-01-07T03:25:25;2.00;;;1.67;;
73959;SDS011;62316;48.920;2.342;2024-01-07T03:27:51;1.67;;;1.00;;
73959;SDS011;62316;48.920;2.342;2024-01-07T03:30:16;2.00;;;2.00;;
73959;SDS011;62316;48.920;2.342;2024-01-07T03:32:41;1.75;;;1.75;;
73959;SDS011;62316;48.920;2.342;2024-01-07T03:35:07;2.00;;;2.00;;
73959;SDS011;62316;48.920;2.342;2024-01-07T03:37:33;2.67;;;2.00;;
73959;SDS011;62316;48.920;2.342;2024-01-07T03:39:59;1.00;;;1.00;;
73959;SDS011;62316;48.920;2.342;2024-01-07T03:42:24;2.00;;;1.00;;
73959;SDS011;62316;48.920;2.342;2024-01-07T03:44:50;2.33;;;2.00;;
73959;SDS011;62316;48.920;2.342;2024-01-07T03:47:15;2.00;;;1.00;;
73959;SDS011;62316;48.920;2.342;2024-01-07T03:49:41;1.00;;;1.00;;
73959;SDS011;62316;48.920;2.342;2024-01-07T03:52:06;2.00;;;2.00;;
73959;SDS011;62316;48.920;2.342;2024-01-07T03:54:32;2.00;;;2.00;;
73959;SDS011;62316;48.920;2.342;2024-01-07T03:56:57;4.75;;;4.75;;
73959;SDS011;62316;48.920;2.342;2024-01-07T03:59:22;6.75;;;5.75;;
73959;SDS011;62316;48.920;2.342;2024-01-07T04:01:50;2.50;;;1.00;;
73959;SDS011;62316;48.920;2.342;2024-01-07T04:04:15;4.50;;;2.50;;
73959;SDS011;62316;48.920;2.342;2024-01-07T04:06:41;2.25;;;1.25;;
73959;SDS011;62316;48.920;2.342;2024-01-07T04:09:06;1.50;;;1.50;;
73959;SDS011;62316;48.920;2.342;2024-01-07T04:11:33;2.00;;;1.00;;
73959;SDS011;62316;48.920;2.342;2024-01-07T04:14:03;3.00;;;2.00;;
73959;SDS011;62316;48.920;2.342;2024-01-07T04:16:29;6.00;;;2.50;;
73959;SDS011;62316;48.920;2.342;2024-01-07T04:18:54;1.25;;;1.25;;
73959;SDS011;62316;48.920;2.342;2024-01-07T04:21:20;3.00;;;2.00;;
73959;SDS011;62316;48.920;2.342;2024-01-07T04:23:46;2.00;;;1.00;;
73959;SDS011;62316;48.920;2.342;2024-01-07T04:26:11;2.00;;;2.00;;
73959;SDS011;62316;48.920;2.342;2024-01-07T04:28:40;2.00;;;2.00;;
73959;SDS011;62316;48.920;2.342;2024-01-07T04:31:06;2.00;;;2.00;;
73959;SDS011;62316;48.920;2.342;2024-01-07T04:33:31;1.50;;;1.50;;
73959;SDS011;62316;48.920;2.342;2024-01-07T04:35:56;1.00;;;1.00;;
73959;SDS011;62316;48.920;2.342;2024-01-07T04:38:23;2.00;;;2.00;;
73959;SDS011;62316;48.920;2.342;2024-01-07T04:40:50;2.25;;;2.25;;
73959;SDS011;62316;48.920;2.342;2024-01-07T04:43:16;1.00;;;1.00;;
73959;SDS011;62316;48.920;2.342;2024-01-07T04:45:41;2.00;;;2.00;;
73959;SDS011;62316;48.920;2.342;2024-01-07T04:48:06;3.00;;;1.00;;
73959;SDS011;62316;48.920;2.342;2024-01-07T04:50:32;2.00;;;1.00;;
73959;SDS011;62316;48.920;2.342;2024-01-07T04:52:57;2.50;;;2.50;;
73959;SDS011;62316;48.920;2.342;2024-01-07T04:55:22;3.00;;;3.00;;
73959;SDS011;62316;48.920;2.342;2024-01-07T04:57:48;1.00;;;1.00;;
73959;SDS011;62316;48.920;2.342;2024-01-07T05:00:13;1.50;;;1.50;;
73959;SDS011;62316;48.920;2.342;2024-01-07T05:02:39;1.00;;;1.00;;
73959;SDS011;62316;48.920;2.342;2024-01-07T05:05:04;3.50;;;2.25;;
73959;SDS011;62316;48.920;2.342;2024-01-07T05:07:30;3.00;;;2.75;;
73959;SDS011;62316;48.920;2.342;2024-01-07T05:09:55;1.75;;;1.75;;
73959;SDS011;62316;48.920;2.342;2024-01-07T05:12:20;2.50;;;2.00;;
73959;SDS011;62316;48.920;2.342;2024-01-07T05:14:46;2.50;;;2.00;;
73959;SDS011;62316;48.920;2.342;2024-01-07T05:17:11;2.00;;;2.00;;
73959;SDS011;62316;48.920;2.342;2024-01-07T05:19:39;2.25;;;1.50;;
73959;SDS011;62316;48.920;2.342;2024-01-07T05:22:06;3.00;;;2.00;;
73959;SDS011;62316;48.920;2.342;2024-01-07T05:24:31;1.50;;;1.50;;
73959;SDS011;62316;48.920;2.342;2024-01-07T05:26:56;1.00;;;1.00;;
73959;SDS011;62316;48.920;2.342;2024-01-07T05:29:22;4.25;;;2.00;;
73959;SDS011;62316;48.920;2.342;2024-01-07T05:31:47;2.00;;;1.00;;
73959;SDS011;62316;48.920;2.342;2024-01-07T05:34:12;2.00;;;2.00;;
73959;SDS011;62316;48.920;2.342;2024-01-07T05:36:38;1.00;;;1.00;;
73959;SDS011;62316;48.920;2.342;2024-01-07T05:39:03;1.75;;;1.75;;
73959;SDS011;62316;48.920;2.342;2024-01-07T05:41:29;1.50;;;1.50;;
73959;SDS011;62316;48.920;2.342;2024-01-07T05:43:54;2.00;;;2.00;;
73959;SDS011;62316;48.920;2.342;2024-01-07T05:46:20;1.00;;;1.00;;
73959;SDS011;62316;48.920;2.342;2024-01-07T05:48:46;2.00;;;2.00;;
73959;SDS011;62316;48.920;2.342;2024-01-07T05:51:12;2.50;;;2.50;;
73959;SDS011;62316;48.920;2.342;2024-01-07T05:53:37;1.50;;;1.00;;
73959;SDS011;62316;48.920;2.342;2024-01-07T05:56:03;3.00;;;1.75;;
73959;SDS011;62316;48.920;2.342;2024-01-07T05:58:29;1.50;;;0.00;;
73959;SDS011;62316;48.920;2.342;2024-01-07T06:00:54;5.00;;;1.00;;
73959;SDS011;62316;48.920;2.342;2024-01-07T06:03:20;1.33;;;1.00;;
73959;SDS011;62316;48.920;2.342;2024-01-07T06:05:45;2.33;;;1.33;;
73959;SDS011;62316;48.920;2.342;2024-01-07T06:08:11;2.00;;;2.00;;
73959;SDS011;62316;48.920;2.342;2024-01-07T06:10:36;0.33;;;0.33;;
73959;SDS011;62316;48.920;2.342;2024-01-07T06:13:01;2.00;;;2.00;;
73959;SDS011;62316;48.920;2.342;2024-01-07T06:15:28;2.00;;;1.00;;
73959;SDS011;62316;48.920;2.342;2024-01-07T06:17:53;2.50;;;2.25;;
73959;SDS011;62316;48.920;2.342;2024-01-07T06:20:19;4.00;;;2.25;;
73959;SDS011;62316;48.920;2.342;2024-01-07T06:22:51;2.25;;;2.25;;
73959;SDS011;62316;48.920;2.342;2024-01-07T06:25:16;2.25;;;2.25;;
73959;SDS011;62316;48.920;2.342;2024-01-07T06:27:42;5.00;;;3.00;;
73959;SDS011;62316;48.920;2.342;2024-01-07T06:30:07;3.00;;;1.75;;
73959;SDS011;62316;48.920;2.342;2024-01-07T06:32:33;5.00;;;2.25;;
73959;SDS011;62316;48.920;2.342;2024-01-07T06:34:59;2.25;;;2.25;;
73959;SDS011;62316;48.920;2.342;2024-01-07T06:37:24;4.00;;;3.00;;
73959;SDS011;62316;48.920;2.342;2024-01-07T06:39:50;2.50;;;2.50;;
73959;SDS011;62316;48.920;2.342;2024-01-07T06:42:16;4.00;;;2.00;;
73959;SDS011;62316;48.920;2.342;2024-01-07T06:44:41;5.00;;;1.50;;
73959;SDS011;62316;48.920;2.342;2024-01-07T06:47:06;6.25;;;2.00;;
73959;SDS011;62316;48.920;2.342;2024-01-07T06:49:32;3.00;;;3.00;;
73959;SDS011;62316;48.920;2.342;2024-01-07T06:51:57;3.50;;;2.00;;
73959;SDS011;62316;48.920;2.342;2024-01-07T06:54:22;2.00;;;2.00;;
73959;SDS011;62316;48.920;2.342;2024-01-07T06:56:48;6.25;;;2.75;;
73959;SDS011;62316;48.920;2.342;2024-01-07T06:59:13;2.00;;;1.00;;
73959;SDS011;62316;48.920;2.342;2024-01-07T07:01:38;3.00;;;3.00;;
73959;SDS011;62316;48.920;2.342;2024-01-07T07:04:04;2.25;;;2.25;;
73959;SDS011;62316;48.920;2.342;2024-01-07T07:06:29;1.25;;;0.50;;
73959;SDS011;62316;48.920;2.342;2024-01-07T07:08:54;3.00;;;3.00;;
73959;SDS011;62316;48.920;2.342;2024-01-07T07:11:20;2.67;;;2.67;;
73959;SDS011;62316;48.920;2.342;2024-01-07T07:13:45;1.00;;;1.00;;
73959;SDS011;62316;48.920;2.342;2024-01-07T07:16:10;2.67;;;2.67;;
73959;SDS011;62316;48.920;2.342;2024-01-07T07:18:37;2.50;;;2.00;;
73959;SDS011;62316;48.920;2.342;2024-01-07T07:21:02;4.50;;;3.00;;
73959;SDS011;62316;48.920;2.342;2024-01-07T07:23:28;2.00;;;1.75;;
73959;SDS011;62316;48.920;2.342;2024-01-07T07:25:53;5.00;;;3.00;;
73959;SDS011;62316;48.920;2.342;2024-01-07T07:28:18;3.00;;;2.00;;
73959;SDS011;62316;48.920;2.342;2024-01-07T07:30:44;3.25;;;3.25;;
73959;SDS011;62316;48.920;2.342;2024-01-07T07:33:09;3.50;;;3.50;;
73959;SDS011;62316;48.920;2.342;2024-01-07T07:35:34;9.00;;;5.75;;
73959;SDS011;62316;48.920;2.342;2024-01-07T07:38:00;5.00;;;5.00;;
73959;SDS011;62316;48.920;2.342;2024-01-07T07:40:25;3.00;;;2.00;;
73959;SDS011;62316;48.920;2.342;2024-01-07T07:42:50;6.00;;;6.00;;
73959;SDS011;62316;48.920;2.342;2024-01-07T07:45:16;3.50;;;3.00;;
73959;SDS011;62316;48.920;2.342;2024-01-07T07:47:41;5.00;;;5.00;;
73959;SDS011;62316;48.920;2.342;2024-01-07T07:50:10;2.00;;;2.00;;
73959;SDS011;62316;48.920;2.342;2024-01-07T07:52:38;4.00;;;4.00;;
73959;SDS011;62316;48.920;2.342;2024-01-07T07:55:03;5.00;;;3.00;;
73959;SDS011;62316;48.920;2.342;2024-01-07T07:57:28;6.25;;;4.25;;
73959;SDS011;62316;48.920;2.342;2024-01-07T07:59:54;9.25;;;7.25;;
73959;SDS011;62316;48.920;2.342;2024-01-07T08:02:20;5.75;;;5.00;;
73959;SDS011;62316;48.920;2.342;2024-01-07T08:04:46;6.00;;;6.00;;
73959;SDS011;62316;48.920;2.342;2024-01-07T08:07:12;3.00;;;3.00;;
73959;SDS011;62316;48.920;2.342;2024-01-07T08:09:37;5.00;;;3.50;;
73959;SDS011;62316;48.920;2.342;2024-01-07T08:12:03;5.25;;;5.25;;
73959;SDS011;62316;48.920;2.342;2024-01-07T08:14:29;2.00;;;2.00;;
73959;SDS011;62316;48.920;2.342;2024-01-07T08:16:55;5.50;;;5.25;;
73959;SDS011;62316;48.920;2.342;2024-01-07T08:19:21;6.75;;;5.75;;
73959;SDS011;62316;48.920;2.342;2024-01-07T08:21:46;14.50;;;8.00;;
73959;SDS011;62316;48.920;2.342;2024-01-07T08:24:12;3.00;;;2.00;;
73959;SDS011;62316;48.920;2.342;2024-01-07T08:26:37;6.00;;;5.50;;
73959;SDS011;62316;48.920;2.342;2024-01-07T08:29:03;8.50;;;8.50;;
73959;SDS011;62316;48.920;2.342;2024-01-07T08:31:28;6.50;;;6.50;;
73959;SDS011;62316;48.920;2.342;2024-01-07T08:33:53;6.25;;;6.25;;
73959;SDS011;62316;48.920;2.342;2024-01-07T08:36:19;6.25;;;6.25;;
73959;SDS011;62316;48.920;2.342;2024-01-07T08:38:44;7.75;;;6.75;;
73959;SDS011;62316;48.920;2.342;2024-01-07T08:41:09;6.75;;;6.75;;
73959;SDS011;62316;48.920;2.342;2024-01-07T08:43:35;9.00;;;6.00;;
73959;SDS011;62316;48.920;2.342;2024-01-07T08:46:00;9.00;;;7.00;;
73959;SDS011;62316;48.920;2.342;2024-01-07T08:48:25;6.00;;;6.00;;
73959;SDS011;62316;48.920;2.342;2024-01-07T08:50:51;7.00;;;5.00;;
73959;SDS011;62316;48.920;2.342;2024-01-07T08:53:17;6.00;;;6.00;;
73959;SDS011;62316;48.920;2.342;2024-01-07T08:55:43;12.25;;;8.00;;
73959;SDS011;62316;48.920;2.342;2024-01-07T08:58:09;6.75;;;6.75;;
73959;SDS011;62316;48.920;2.342;2024-01-07T09:00:34;5.50;;;5.50;;
73959;SDS011;62316;48.920;2.342;2024-01-07T09:03:00;10.25;;;8.50;;
73959;SDS011;62316;48.920;2.342;2024-01-07T09:05:25;7.75;;;7.75;;
73959;SDS011;62316;48.920;2.342;2024-01-07T09:07:50;8.75;;;7.00;;
73959;SDS011;62316;48.920;2.342;2024-01-07T09:10:16;10.75;;;9.50;;
73959;SDS011;62316;48.920;2.342;2024-01-07T09:12:43;5.75;;;5.75;;
73959;SDS011;62316;48.920;2.342;2024-01-07T09:15:09;13.50;;;10.00;;
73959;SDS011;62316;48.920;2.342;2024-01-07T09:17:35;9.00;;;7.00;;
73959;SDS011;62316;48.920;2.342;2024-01-07T09:20:02;13.50;;;9.00;;
73959;SDS011;62316;48.920;2.342;2024-01-07T09:22:29;10.50;;;10.50;;
73959;SDS011;62316;48.920;2.342;2024-01-07T09:24:55;11.25;;;9.50;;
73959;SDS011;62316;48.920;2.342;2024-01-07T09:27:21;14.50;;;12.50;;
73959;SDS011;62316;48.920;2.342;2024-01-07T09:29:46;8.50;;;8.50;;
73959;SDS011;62316;48.920;2.342;2024-01-07T09:32:12;13.75;;;7.50;;
73959;SDS011;62316;48.920;2.342;2024-01-07T09:34:37;11.75;;;10.00;;
73959;SDS011;62316;48.920;2.342;2024-01-07T09:37:02;8.00;;;6.75;;
73959;SDS011;62316;48.920;2.342;2024-01-07T09:39:28;14.25;;;11.00;;
73959;SDS011;62316;48.920;2.342;2024-01-07T09:41:53;13.25;;;11.00;;
73959;SDS011;62316;48.920;2.342;2024-01-07T09:44:19;12.50;;;11.00;;
73959;SDS011;62316;48.920;2.342;2024-01-07T09:46:44;14.50;;;8.25;;
73959;SDS011;62316;48.920;2.342;2024-01-07T09:49:10;9.25;;;9.25;;
73959;SDS011;62316;48.920;2.342;2024-01-07T09:51:36;16.75;;;13.25;;
73959;SDS011;62316;48.920;2.342;2024-01-07T09:54:02;12.25;;;10.50;;
73959;SDS011;62316;48.920;2.342;2024-01-07T09:56:42;17.50;;;14.00;;
73959;SDS011;62316;48.920;2.342;2024-01-07T09:59:16;12.00;;;11.00;;
73959;SDS011;62316;48.920;2.342;2024-01-07T10:01:41;10.50;;;10.25;;
73959;SDS011;62316;48.920;2.342;2024-01-07T10:04:07;12.50;;;9.75;;
73959;SDS011;62316;48.920;2.342;2024-01-07T10:06:32;14.25;;;11.25;;
73959;SDS011;62316;48.920;2.342;2024-01-07T10:08:58;12.50;;;9.75;;
73959;SDS011;62316;48.920;2.342;2024-01-07T10:11:24;18.00;;;15.25;;
73959;SDS011;62316;48.920;2.342;2024-01-07T10:13:49;8.25;;;8.25;;
73959;SDS011;62316;48.920;2.342;2024-01-07T10:16:17;14.50;;;13.50;;
73959;SDS011;62316;48.920;2.342;2024-01-07T10:18:42;14.00;;;14.00;;
73959;SDS011;62316;48.920;2.342;2024-01-07T10:21:07;15.00;;;11.00;;
73959;SDS011;62316;48.920;2.342;2024-01-07T10:23:33;20.00;;;15.75;;
73959;SDS011;62316;48.920;2.342;2024-01-07T10:25:58;14.75;;;12.50;;
73959;SDS011;62316;48.920;2.342;2024-01-07T10:28:24;23.75;;;19.00;;
73959;SDS011;62316;48.920;2.342;2024-01-07T10:30:50;2.50;;;2.50;;
73959;SDS011;62316;48.920;2.342;2024-01-07T10:33:16;20.25;;;18.75;;
73959;SDS011;62316;48.920;2.342;2024-01-07T10:35:43;18.50;;;16.00;;
73959;SDS011;62316;48.920;2.342;2024-01-07T10:38:18;22.25;;;17.25;;
73959;SDS011;62316;48.920;2.342;2024-01-07T10:40:43;14.75;;;13.50;;
73959;SDS011;62316;48.920;2.342;2024-01-07T10:43:09;15.50;;;14.25;;
73959;SDS011;62316;48.920;2.342;2024-01-07T10:45:48;19.75;;;18.00;;
73959;SDS011;62316;48.920;2.342;2024-01-07T10:48:13;18.00;;;15.75;;
73959;SDS011;62316;48.920;2.342;2024-01-07T10:50:43;19.25;;;16.50;;
73959;SDS011;62316;48.920;2.342;2024-01-07T10:53:10;16.25;;;16.25;;
73959;SDS011;62316;48.920;2.342;2024-01-07T10:55:39;24.50;;;22.50;;
73959;SDS011;62316;48.920;2.342;2024-01-07T10:58:07;19.75;;;18.25;;
73959;SDS011;62316;48.920;2.342;2024-01-07T11:00:39;22.50;;;18.00;;
73959;SDS011;62316;48.920;2.342;2024-01-07T11:03:14;20.50;;;19.00;;
73959;SDS011;62316;48.920;2.342;2024-01-07T11:05:49;18.25;;;17.50;;
73959;SDS011;62316;48.920;2.342;2024-01-07T11:10:53;22.25;;;18.75;;
73959;SDS011;62316;48.920;2.342;2024-01-07T11:13:32;37.50;;;32.25;;
73959;SDS011;62316;48.920;2.342;2024-01-07T11:16:07;23.00;;;20.75;;
73959;SDS011;62316;48.920;2.342;2024-01-07T11:18:46;26.25;;;23.75;;
73959;SDS011;62316;48.920;2.342;2024-01-07T11:21:19;24.25;;;19.25;;
73959;SDS011;62316;48.920;2.342;2024-01-07T11:23:46;35.50;;;26.50;;
73959;SDS011;62316;48.920;2.342;2024-01-07T11:26:11;31.25;;;25.50;;
73959;SDS011;62316;48.920;2.342;2024-01-07T11:31:15;23.50;;;21.00;;
73959;SDS011;62316;48.920;2.342;2024-01-07T11:33:43;24.75;;;23.25;;
73959;SDS011;62316;48.920;2.342;2024-01-07T11:36:10;34.25;;;27.75;;
73959;SDS011;62316;48.920;2.342;2024-01-07T11:38:36;28.00;;;26.00;;
73959;SDS011;62316;48.920;2.342;2024-01-07T11:41:04;32.50;;;30.50;;
73959;SDS011;62316;48.920;2.342;2024-01-07T11:43:31;27.75;;;23.25;;
73959;SDS011;62316;48.920;2.342;2024-01-07T11:45:57;26.25;;;23.00;;
73959;SDS011;62316;48.920;2.342;2024-01-07T11:48:23;49.25;;;31.75;;
73959;SDS011;62316;48.920;2.342;2024-01-07T11:50:48;35.00;;;25.50;;
73959;SDS011;62316;48.920;2.342;2024-01-07T11:53:14;21.00;;;18.00;;
73959;SDS011;62316;48.920;2.342;2024-01-07T11:55:39;26.75;;;26.00;;
73959;SDS011;62316;48.920;2.342;2024-01-07T11:58:05;40.25;;;33.75;;
73959;SDS011;62316;48.920;2.342;2024-01-07T12:00:31;38.75;;;30.75;;
73959;SDS011;62316;48.920;2.342;2024-01-07T12:02:57;35.00;;;31.50;;
73959;SDS011;62316;48.920;2.342;2024-01-07T12:05:24;38.00;;;35.25;;
73959;SDS011;62316;48.920;2.342;2024-01-07T12:07:49;34.00;;;28.00;;
73959;SDS011;62316;48.920;2.342;2024-01-07T12:10:14;25.50;;;22.75;;
73959;SDS011;62316;48.920;2.342;2024-01-07T12:12:41;37.75;;;34.25;;
73959;SDS011;62316;48.920;2.342;2024-01-07T12:15:07;38.50;;;29.25;;
73959;SDS011;62316;48.920;2.342;2024-01-07T12:17:33;42.75;;;36.25;;
73959;SDS011;62316;48.920;2.342;2024-01-07T12:19:59;42.50;;;36.75;;
73959;SDS011;62316;48.920;2.342;2024-01-07T12:22:26;41.00;;;31.50;;
73959;SDS011;62316;48.920;2.342;2024-01-07T12:25:02;34.00;;;32.25;;
73959;SDS011;62316;48.920;2.342;2024-01-07T12:27:28;42.25;;;37.00;;
73959;SDS011;62316;48.920;2.342;2024-01-07T12:29:59;39.75;;;33.25;;
73959;SDS011;62316;48.920;2.342;2024-01-07T12:32:29;42.75;;;34.75;;
73959;SDS011;62316;48.920;2.342;2024-01-07T12:34:58;43.50;;;38.25;;
73959;SDS011;62316;48.920;2.342;2024-01-07T12:37:27;51.50;;;39.25;;
73959;SDS011;62316;48.920;2.342;2024-01-07T12:39:53;37.75;;;32.50;;
73959;SDS011;62316;48.920;2.342;2024-01-07T12:42:19;39.75;;;30.75;;
73959;SDS011;62316;48.920;2.342;2024-01-07T12:44:47;46.50;;;37.75;;
73959;SDS011;62316;48.920;2.342;2024-01-07T12:47:13;36.25;;;31.50;;
73959;SDS011;62316;48.920;2.342;2024-01-07T12:49:39;38.50;;;35.25;;
73959;SDS011;62316;48.920;2.342;2024-01-07T12:52:04;40.25;;;36.75;;
73959;SDS011;62316;48.920;2.342;2024-01-07T12:54:30;30.25;;;24.75;;
73959;SDS011;62316;48.920;2.342;2024-01-07T12:56:55;48.00;;;40.50;;
73959;SDS011;62316;48.920;2.342;2024-01-07T12:59:20;43.00;;;35.50;;
73959;SDS011;62316;48.920;2.342;2024-01-07T13:01:46;45.25;;;32.75;;
73959;SDS011;62316;48.920;2.342;2024-01-07T13:04:11;47.50;;;37.25;;
73959;SDS011;62316;48.920;2.342;2024-01-07T13:06:37;56.75;;;43.00;;
73959;SDS011;62316;48.920;2.342;2024-01-07T13:09:02;45.25;;;37.00;;
73959;SDS011;62316;48.920;2.342;2024-01-07T13:11:29;46.50;;;37.25;;
73959;SDS011;62316;48.920;2.342;2024-01-07T13:13:55;35.25;;;32.50;;
73959;SDS011;62316;48.920;2.342;2024-01-07T13:16:24;34.25;;;32.25;;
73959;SDS011;62316;48.920;2.342;2024-01-07T13:18:50;26.25;;;23.25;;
73959;SDS011;62316;48.920;2.342;2024-01-07T13:21:15;34.75;;;29.50;;
73959;SDS011;62316;48.920;2.342;2024-01-07T13:23:42;36.75;;;33.00;;
73959;SDS011;62316;48.920;2.342;2024-01-07T13:26:09;35.50;;;30.00;;
73959;SDS011;62316;48.920;2.342;2024-01-07T13:28:35;34.00;;;32.75;;
73959;SDS011;62316;48.920;2.342;2024-01-07T13:31:00;26.75;;;21.00;;
73959;SDS011;62316;48.920;2.342;2024-01-07T13:33:25;37.50;;;32.75;;
73959;SDS011;62316;48.920;2.342;2024-01-07T13:35:51;26.00;;;25.50;;
73959;SDS011;62316;48.920;2.342;2024-01-07T13:38:16;37.50;;;34.75;;
73959;SDS011;62316;48.920;2.342;2024-01-07T13:40:42;42.25;;;36.50;;
73959;SDS011;62316;48.920;2.342;2024-01-07T13:43:07;41.25;;;36.00;;
73959;SDS011;62316;48.920;2.342;2024-01-07T13:45:32;36.25;;;34.50;;
73959;SDS011;62316;48.920;2.342;2024-01-07T13:47:58;30.25;;;28.50;;
73959;SDS011;62316;48.920;2.342;2024-01-07T13:50:23;37.25;;;32.25;;
73959;SDS011;62316;48.920;2.342;2024-01-07T13:52:48;33.00;;;31.00;;
73959;SDS011;62316;48.920;2.342;2024-01-07T13:55:15;32.75;;;26.75;;
73959;SDS011;62316;48.920;2.342;2024-01-07T13:57:40;38.25;;;32.75;;
73959;SDS011;62316;48.920;2.342;2024-01-07T14:00:06;30.75;;;26.00;;
73959;SDS011;62316;48.920;2.342;2024-01-07T14:02:38;40.25;;;34.00;;
73959;SDS011;62316;48.920;2.342;2024-01-07T14:05:05;35.75;;;32.00;;
73959;SDS011;62316;48.920;2.342;2024-01-07T14:07:33;39.75;;;33.00;;
73959;SDS011;62316;48.920;2.342;2024-01-07T14:09:59;41.75;;;34.00;;
73959;SDS011;62316;48.920;2.342;2024-01-07T14:12:28;42.00;;;34.25;;
73959;SDS011;62316;48.920;2.342;2024-01-07T14:14:53;38.50;;;34.00;;
73959;SDS011;62316;48.920;2.342;2024-01-07T14:17:18;35.50;;;31.75;;
73959;SDS011;62316;48.920;2.342;2024-01-07T14:19:45;41.75;;;37.25;;
73959;SDS011;62316;48.920;2.342;2024-01-07T14:22:12;32.50;;;29.75;;
73959;SDS011;62316;48.920;2.342;2024-01-07T14:24:38;45.75;;;38.75;;
73959;SDS011;62316;48.920;2.342;2024-01-07T14:27:03;34.75;;;33.25;;
73959;SDS011;62316;48.920;2.342;2024-01-07T14:29:30;35.75;;;32.75;;
73959;SDS011;62316;48.920;2.342;2024-01-07T14:31:55;37.00;;;34.00;;
73959;SDS011;62316;48.920;2.342;2024-01-07T14:34:20;31.75;;;24.00;;
73959;SDS011;62316;48.920;2.342;2024-01-07T14:36:46;35.25;;;30.50;;